Houston, Texas
Traffic Map
Current Weather Conditions
Houston, Texas
Clear
Clear
68°
Feels Like: 68°
Wind Chill: 68° Ceiling: Unl
Heat Index: 68° Visibility: 9mi
Dew Point: 66° Wind: 5mph
Humidity: 94% Direction: 350° (N)
Pressure: 29.9in Gusts: 0mph
Raw Report DataKMCJ 230755Z AUTO 35004KT 9SM CLR 20/19 A2990 RMK AO1
Traffic Incident Summary
Active as of:
Severity:
Category:
InformationThere was an issue retrieving the traffic information for this location. Please try a different location or try again shortly.
Advertisements
At Last! Intellicast now available for iPhone and Android